sensor_id;sensor_type;location;lat;lon;timestamp;temperature;humidity
41985;DHT22;28319;48.116;10.818;2022-09-01T00:01:33;16.00;99.90
41985;DHT22;28319;48.116;10.818;2022-09-01T00:06:37;15.80;99.90
41985;DHT22;28319;48.116;10.818;2022-09-01T00:11:42;15.90;99.90
41985;DHT22;28319;48.116;10.818;2022-09-01T00:16:46;15.90;99.90
41985;DHT22;28319;48.116;10.818;2022-09-01T00:21:48;15.60;99.90
41985;DHT22;28319;48.116;10.818;2022-09-01T00:26:50;15.70;99.90
41985;DHT22;28319;48.116;10.818;2022-09-01T00:31:54;15.80;99.90
41985;DHT22;28319;48.116;10.818;2022-09-01T00:36:56;15.80;99.90
41985;DHT22;28319;48.116;10.818;2022-09-01T00:41:58;15.70;99.90
41985;DHT22;28319;48.116;10.818;2022-09-01T00:47:02;15.60;99.90
41985;DHT22;28319;48.116;10.818;2022-09-01T00:52:11;15.80;99.90
41985;DHT22;28319;48.116;10.818;2022-09-01T00:57:14;15.70;99.90
41985;DHT22;28319;48.116;10.818;2022-09-01T01:02:18;15.60;99.90
41985;DHT22;28319;48.116;10.818;2022-09-01T01:07:20;15.60;99.90
41985;DHT22;28319;48.116;10.818;2022-09-01T01:12:23;15.60;99.90
41985;DHT22;28319;48.116;10.818;2022-09-01T01:17:31;15.70;99.90
41985;DHT22;28319;48.116;10.818;2022-09-01T01:22:40;15.60;99.90
41985;DHT22;28319;48.116;10.818;2022-09-01T01:28:07;15.60;99.90
41985;DHT22;28319;48.116;10.818;2022-09-01T01:33:10;15.60;99.90
41985;DHT22;28319;48.116;10.818;2022-09-01T01:38:12;15.60;99.90
41985;DHT22;28319;48.116;10.818;2022-09-01T01:43:17;15.60;99.90
41985;DHT22;28319;48.116;10.818;2022-09-01T01:48:21;15.70;99.90
41985;DHT22;28319;48.116;10.818;2022-09-01T01:53:24;15.80;99.90
41985;DHT22;28319;48.116;10.818;2022-09-01T01:58:28;15.80;99.90
41985;DHT22;28319;48.116;10.818;2022-09-01T02:03:33;15.80;99.90
41985;DHT22;28319;48.116;10.818;2022-09-01T02:08:38;15.60;99.90
41985;DHT22;28319;48.116;10.818;2022-09-01T02:13:42;15.60;99.90
41985;DHT22;28319;48.116;10.818;2022-09-01T02:18:45;15.60;99.90
41985;DHT22;28319;48.116;10.818;2022-09-01T02:23:50;15.40;99.90
41985;DHT22;28319;48.116;10.818;2022-09-01T02:29:01;15.50;99.90
41985;DHT22;28319;48.116;10.818;2022-09-01T02:34:04;15.40;99.90
41985;DHT22;28319;48.116;10.818;2022-09-01T02:39:10;15.60;99.90
41985;DHT22;28319;48.116;10.818;2022-09-01T02:44:13;15.50;99.90
41985;DHT22;28319;48.116;10.818;2022-09-01T02:49:18;15.60;99.90
41985;DHT22;28319;48.116;10.818;2022-09-01T02:54:26;15.50;99.90
41985;DHT22;28319;48.116;10.818;2022-09-01T02:59:30;15.60;99.90
41985;DHT22;28319;48.116;10.818;2022-09-01T03:04:34;15.60;99.90
41985;DHT22;28319;48.116;10.818;2022-09-01T03:09:36;15.60;99.90
41985;DHT22;28319;48.116;10.818;2022-09-01T03:14:42;15.50;99.90
41985;DHT22;28319;48.116;10.818;2022-09-01T03:19:44;15.50;99.90
41985;DHT22;28319;48.116;10.818;2022-09-01T03:24:46;15.30;99.90
41985;DHT22;28319;48.116;10.818;2022-09-01T03:29:49;15.30;99.90
41985;DHT22;28319;48.116;10.818;2022-09-01T03:34:51;15.30;99.90
41985;DHT22;28319;48.116;10.818;2022-09-01T03:39:54;15.30;99.90
41985;DHT22;28319;48.116;10.818;2022-09-01T03:45:00;15.30;99.90
41985;DHT22;28319;48.116;10.818;2022-09-01T03:50:13;15.20;99.90
41985;DHT22;28319;48.116;10.818;2022-09-01T03:55:22;15.30;99.90
41985;DHT22;28319;48.116;10.818;2022-09-01T04:00:28;15.40;99.90
41985;DHT22;28319;48.116;10.818;2022-09-01T04:05:33;15.30;99.90
41985;DHT22;28319;48.116;10.818;2022-09-01T04:10:43;15.40;99.90
41985;DHT22;28319;48.116;10.818;2022-09-01T04:15:50;15.30;99.90
41985;DHT22;28319;48.116;10.818;2022-09-01T04:20:54;15.20;99.90
41985;DHT22;28319;48.116;10.818;2022-09-01T04:25:59;15.10;99.90
41985;DHT22;28319;48.116;10.818;2022-09-01T04:31:11;15.10;99.90
41985;DHT22;28319;48.116;10.818;2022-09-01T04:36:20;15.10;99.90
41985;DHT22;28319;48.116;10.818;2022-09-01T04:41:25;15.10;99.90
41985;DHT22;28319;48.116;10.818;2022-09-01T04:46:29;15.10;99.90
41985;DHT22;28319;48.116;10.818;2022-09-01T04:51:32;14.90;99.90
41985;DHT22;28319;48.116;10.818;2022-09-01T04:56:35;14.90;99.90
41985;DHT22;28319;48.116;10.818;2022-09-01T05:01:39;14.90;99.90
41985;DHT22;28319;48.116;10.818;2022-09-01T05:06:46;14.80;99.90
41985;DHT22;28319;48.116;10.818;2022-09-01T05:11:48;14.90;99.90
41985;DHT22;28319;48.116;10.818;2022-09-01T05:16:56;14.80;99.90
41985;DHT22;28319;48.116;10.818;2022-09-01T05:21:58;14.80;99.90
41985;DHT22;28319;48.116;10.818;2022-09-01T05:27:00;14.90;99.90
41985;DHT22;28319;48.116;10.818;2022-09-01T05:32:04;14.80;99.90
41985;DHT22;28319;48.116;10.818;2022-09-01T05:37:09;14.80;99.90
41985;DHT22;28319;48.116;10.818;2022-09-01T05:42:12;14.90;99.90
41985;DHT22;28319;48.116;10.818;2022-09-01T05:47:16;14.90;99.90
41985;DHT22;28319;48.116;10.818;2022-09-01T05:52:20;15.00;99.90
41985;DHT22;28319;48.116;10.818;2022-09-01T05:57:25;15.10;99.90
41985;DHT22;28319;48.116;10.818;2022-09-01T06:02:29;15.10;99.90
41985;DHT22;28319;48.116;10.818;2022-09-01T06:07:33;15.00;99.90
41985;DHT22;28319;48.116;10.818;2022-09-01T06:12:37;15.00;99.90
41985;DHT22;28319;48.116;10.818;2022-09-01T06:17:41;15.00;99.90
41985;DHT22;28319;48.116;10.818;2022-09-01T06:22:43;15.00;99.90
41985;DHT22;28319;48.116;10.818;2022-09-01T06:27:47;15.10;99.90
41985;DHT22;28319;48.116;10.818;2022-09-01T06:32:51;15.10;99.90
41985;DHT22;28319;48.116;10.818;2022-09-01T06:37:53;15.30;99.90
41985;DHT22;28319;48.116;10.818;2022-09-01T06:42:55;15.40;99.90
41985;DHT22;28319;48.116;10.818;2022-09-01T06:48:01;15.40;99.90
41985;DHT22;28319;48.116;10.818;2022-09-01T06:53:03;15.30;99.90
41985;DHT22;28319;48.116;10.818;2022-09-01T06:58:10;15.30;99.90
41985;DHT22;28319;48.116;10.818;2022-09-01T07:03:16;15.30;99.90
41985;DHT22;28319;48.116;10.818;2022-09-01T07:08:19;15.50;99.90
41985;DHT22;28319;48.116;10.818;2022-09-01T07:13:22;15.60;99.90
41985;DHT22;28319;48.116;10.818;2022-09-01T07:18:27;15.80;99.90
41985;DHT22;28319;48.116;10.818;2022-09-01T07:23:30;15.90;99.90
41985;DHT22;28319;48.116;10.818;2022-09-01T07:28:32;16.10;99.90
41985;DHT22;28319;48.116;10.818;2022-09-01T07:33:36;16.10;99.90
41985;DHT22;28319;48.116;10.818;2022-09-01T07:38:38;16.10;99.90
41985;DHT22;28319;48.116;10.818;2022-09-01T07:43:40;16.20;99.90
41985;DHT22;28319;48.116;10.818;2022-09-01T07:48:46;16.20;99.90
41985;DHT22;28319;48.116;10.818;2022-09-01T07:53:48;16.10;99.90
41985;DHT22;28319;48.116;10.818;2022-09-01T07:58:51;16.20;99.90
41985;DHT22;28319;48.116;10.818;2022-09-01T08:03:57;16.30;99.90
41985;DHT22;28319;48.116;10.818;2022-09-01T08:08:59;16.40;99.90
41985;DHT22;28319;48.116;10.818;2022-09-01T08:14:01;16.50;99.90
41985;DHT22;28319;48.116;10.818;2022-09-01T08:19:04;16.60;99.90
41985;DHT22;28319;48.116;10.818;2022-09-01T08:24:06;16.40;99.90
41985;DHT22;28319;48.116;10.818;2022-09-01T08:29:09;16.50;99.90
41985;DHT22;28319;48.116;10.818;2022-09-01T08:34:12;16.50;99.90
41985;DHT22;28319;48.116;10.818;2022-09-01T08:39:16;16.70;99.90
41985;DHT22;28319;48.116;10.818;2022-09-01T08:44:26;16.90;99.90
41985;DHT22;28319;48.116;10.818;2022-09-01T08:49:33;17.00;99.90
41985;DHT22;28319;48.116;10.818;2022-09-01T08:54:43;16.80;99.90
41985;DHT22;28319;48.116;10.818;2022-09-01T08:59:45;16.90;99.90
41985;DHT22;28319;48.116;10.818;2022-09-01T09:04:57;17.20;99.90
41985;DHT22;28319;48.116;10.818;2022-09-01T09:10:05;17.30;99.90
41985;DHT22;28319;48.116;10.818;2022-09-01T09:15:18;17.20;99.90
41985;DHT22;28319;48.116;10.818;2022-09-01T09:20:22;17.30;99.90
41985;DHT22;28319;48.116;10.818;2022-09-01T09:25:24;17.50;99.90
41985;DHT22;28319;48.116;10.818;2022-09-01T09:30:29;17.30;99.90
41985;DHT22;28319;48.116;10.818;2022-09-01T09:40:36;17.50;99.90
41985;DHT22;28319;48.116;10.818;2022-09-01T09:45:39;17.80;99.90
41985;DHT22;28319;48.116;10.818;2022-09-01T09:50:41;17.80;99.90
41985;DHT22;28319;48.116;10.818;2022-09-01T09:55:54;18.20;99.90
41985;DHT22;28319;48.116;10.818;2022-09-01T10:01:06;18.10;99.90
41985;DHT22;28319;48.116;10.818;2022-09-01T10:06:12;18.40;99.90
41985;DHT22;28319;48.116;10.818;2022-09-01T10:11:36;19.10;99.90
41985;DHT22;28319;48.116;10.818;2022-09-01T10:16:39;19.20;99.10
41985;DHT22;28319;48.116;10.818;2022-09-01T10:21:44;19.10;99.00
41985;DHT22;28319;48.116;10.818;2022-09-01T10:26:52;19.10;99.10
41985;DHT22;28319;48.116;10.818;2022-09-01T10:31:55;18.90;99.50
41985;DHT22;28319;48.116;10.818;2022-09-01T10:36:57;19.50;99.10
41985;DHT22;28319;48.116;10.818;2022-09-01T10:42:01;19.90;98.10
41985;DHT22;28319;48.116;10.818;2022-09-01T10:47:09;19.80;97.90
41985;DHT22;28319;48.116;10.818;2022-09-01T10:52:51;19.70;97.70
41985;DHT22;28319;48.116;10.818;2022-09-01T10:58:03;19.10;97.90
41985;DHT22;28319;48.116;10.818;2022-09-01T11:03:36;19.50;97.00
41985;DHT22;28319;48.116;10.818;2022-09-01T11:08:44;19.70;96.70
41985;DHT22;28319;48.116;10.818;2022-09-01T11:13:49;19.50;97.10
41985;DHT22;28319;48.116;10.818;2022-09-01T11:18:54;19.30;97.30
41985;DHT22;28319;48.116;10.818;2022-09-01T11:30:06;21.00;95.70
41985;DHT22;28319;48.116;10.818;2022-09-01T11:35:17;20.10;96.40
41985;DHT22;28319;48.116;10.818;2022-09-01T11:40:20;20.30;96.30
41985;DHT22;28319;48.116;10.818;2022-09-01T11:45:26;21.40;96.20
41985;DHT22;28319;48.116;10.818;2022-09-01T11:50:33;21.20;94.80
41985;DHT22;28319;48.116;10.818;2022-09-01T11:55:37;21.70;94.70
41985;DHT22;28319;48.116;10.818;2022-09-01T12:00:42;22.00;93.90
41985;DHT22;28319;48.116;10.818;2022-09-01T12:05:45;21.90;93.80
41985;DHT22;28319;48.116;10.818;2022-09-01T12:10:59;22.30;93.30
41985;DHT22;28319;48.116;10.818;2022-09-01T12:16:06;21.30;94.20
41985;DHT22;28319;48.116;10.818;2022-09-01T12:21:18;21.50;94.10
41985;DHT22;28319;48.116;10.818;2022-09-01T12:26:24;22.20;92.70
41985;DHT22;28319;48.116;10.818;2022-09-01T12:31:28;22.50;91.80
41985;DHT22;28319;48.116;10.818;2022-09-01T12:36:31;22.80;91.90
41985;DHT22;28319;48.116;10.818;2022-09-01T12:41:35;22.80;90.90
41985;DHT22;28319;48.116;10.818;2022-09-01T12:46:41;22.40;90.00
41985;DHT22;28319;48.116;10.818;2022-09-01T12:51:43;22.70;91.60
41985;DHT22;28319;48.116;10.818;2022-09-01T12:56:49;22.70;90.60
41985;DHT22;28319;48.116;10.818;2022-09-01T13:01:53;21.80;90.70
41985;DHT22;28319;48.116;10.818;2022-09-01T13:07:01;21.80;91.20
41985;DHT22;28319;48.116;10.818;2022-09-01T13:12:14;22.40;90.50
41985;DHT22;28319;48.116;10.818;2022-09-01T13:17:18;22.40;90.30
41985;DHT22;28319;48.116;10.818;2022-09-01T13:22:21;22.50;90.20
41985;DHT22;28319;48.116;10.818;2022-09-01T13:27:23;22.80;90.20
41985;DHT22;28319;48.116;10.818;2022-09-01T13:32:26;22.80;89.40
41985;DHT22;28319;48.116;10.818;2022-09-01T13:37:29;22.30;90.20
41985;DHT22;28319;48.116;10.818;2022-09-01T13:42:31;22.00;90.70
41985;DHT22;28319;48.116;10.818;2022-09-01T13:47:35;22.60;89.50
41985;DHT22;28319;48.116;10.818;2022-09-01T13:52:38;22.40;90.20
41985;DHT22;28319;48.116;10.818;2022-09-01T13:57:41;22.80;89.60
41985;DHT22;28319;48.116;10.818;2022-09-01T14:02:46;22.50;89.80
41985;DHT22;28319;48.116;10.818;2022-09-01T14:07:50;22.60;90.10
41985;DHT22;28319;48.116;10.818;2022-09-01T14:12:52;22.50;90.70
41985;DHT22;28319;48.116;10.818;2022-09-01T14:17:56;22.50;90.80
41985;DHT22;28319;48.116;10.818;2022-09-01T14:23:00;21.90;92.00
41985;DHT22;28319;48.116;10.818;2022-09-01T14:28:03;21.50;92.60
41985;DHT22;28319;48.116;10.818;2022-09-01T14:33:06;21.40;92.80
41985;DHT22;28319;48.116;10.818;2022-09-01T14:38:10;21.40;92.80
41985;DHT22;28319;48.116;10.818;2022-09-01T14:43:13;21.40;93.60
41985;DHT22;28319;48.116;10.818;2022-09-01T14:48:17;21.60;92.50
41985;DHT22;28319;48.116;10.818;2022-09-01T14:53:20;21.50;92.10
41985;DHT22;28319;48.116;10.818;2022-09-01T14:58:23;21.40;92.10
41985;DHT22;28319;48.116;10.818;2022-09-01T15:03:27;21.60;92.20
41985;DHT22;28319;48.116;10.818;2022-09-01T15:08:29;21.60;91.60
41985;DHT22;28319;48.116;10.818;2022-09-01T15:13:32;21.50;91.50
41985;DHT22;28319;48.116;10.818;2022-09-01T15:18:35;21.40;90.70
41985;DHT22;28319;48.116;10.818;2022-09-01T15:23:38;21.40;90.80
41985;DHT22;28319;48.116;10.818;2022-09-01T15:28:40;21.40;90.10
41985;DHT22;28319;48.116;10.818;2022-09-01T15:33:45;21.20;91.30
41985;DHT22;28319;48.116;10.818;2022-09-01T15:38:47;21.20;90.00
41985;DHT22;28319;48.116;10.818;2022-09-01T15:43:49;21.10;90.70
41985;DHT22;28319;48.116;10.818;2022-09-01T15:48:54;21.00;91.50
41985;DHT22;28319;48.116;10.818;2022-09-01T15:53:58;21.10;91.80
41985;DHT22;28319;48.116;10.818;2022-09-01T15:59:02;20.90;92.20
41985;DHT22;28319;48.116;10.818;2022-09-01T16:04:07;20.80;92.80
41985;DHT22;28319;48.116;10.818;2022-09-01T16:09:12;21.00;92.30
41985;DHT22;28319;48.116;10.818;2022-09-01T16:14:14;20.80;92.00
41985;DHT22;28319;48.116;10.818;2022-09-01T16:19:29;20.50;92.20
41985;DHT22;28319;48.116;10.818;2022-09-01T16:24:39;20.60;92.80
41985;DHT22;28319;48.116;10.818;2022-09-01T16:29:45;20.50;91.50
41985;DHT22;28319;48.116;10.818;2022-09-01T16:34:50;20.40;91.40
41985;DHT22;28319;48.116;10.818;2022-09-01T16:39:57;20.40;91.90
41985;DHT22;28319;48.116;10.818;2022-09-01T16:45:07;20.30;91.50
41985;DHT22;28319;48.116;10.818;2022-09-01T16:50:21;20.30;92.50
41985;DHT22;28319;48.116;10.818;2022-09-01T16:55:35;20.20;92.80
41985;DHT22;28319;48.116;10.818;2022-09-01T17:00:48;20.00;93.20
41985;DHT22;28319;48.116;10.818;2022-09-01T17:05:58;20.00;92.90
41985;DHT22;28319;48.116;10.818;2022-09-01T17:11:06;19.80;92.00
41985;DHT22;28319;48.116;10.818;2022-09-01T17:16:14;19.70;92.30
41985;DHT22;28319;48.116;10.818;2022-09-01T17:21:26;19.70;91.90
41985;DHT22;28319;48.116;10.818;2022-09-01T17:26:31;19.60;92.50
41985;DHT22;28319;48.116;10.818;2022-09-01T17:31:45;19.50;92.00
41985;DHT22;28319;48.116;10.818;2022-09-01T17:36:57;19.50;92.20
41985;DHT22;28319;48.116;10.818;2022-09-01T17:42:12;19.40;92.00
41985;DHT22;28319;48.116;10.818;2022-09-01T17:47:20;19.40;93.30
41985;DHT22;28319;48.116;10.818;2022-09-01T17:52:37;19.30;92.70
41985;DHT22;28319;48.116;10.818;2022-09-01T17:57:45;19.20;92.30
41985;DHT22;28319;48.116;10.818;2022-09-01T18:03:18;19.00;92.90
41985;DHT22;28319;48.116;10.818;2022-09-01T18:08:36;19.00;93.10
41985;DHT22;28319;48.116;10.818;2022-09-01T18:13:45;18.80;93.30
41985;DHT22;28319;48.116;10.818;2022-09-01T18:18:51;18.90;93.60
41985;DHT22;28319;48.116;10.818;2022-09-01T18:24:03;18.70;93.90
41985;DHT22;28319;48.116;10.818;2022-09-01T18:29:06;18.80;93.70
41985;DHT22;28319;48.116;10.818;2022-09-01T18:34:17;18.60;94.10
41985;DHT22;28319;48.116;10.818;2022-09-01T18:39:27;18.60;94.10
41985;DHT22;28319;48.116;10.818;2022-09-01T18:44:42;18.40;94.60
41985;DHT22;28319;48.116;10.818;2022-09-01T18:49:54;18.40;94.70
41985;DHT22;28319;48.116;10.818;2022-09-01T18:55:07;18.40;94.50
41985;DHT22;28319;48.116;10.818;2022-09-01T19:00:16;18.30;95.10
41985;DHT22;28319;48.116;10.818;2022-09-01T19:05:27;18.30;94.80
41985;DHT22;28319;48.116;10.818;2022-09-01T19:10:34;18.30;95.00
41985;DHT22;28319;48.116;10.818;2022-09-01T19:15:43;18.20;95.10
41985;DHT22;28319;48.116;10.818;2022-09-01T19:20:49;18.20;95.30
41985;DHT22;28319;48.116;10.818;2022-09-01T19:26:00;18.30;95.30
41985;DHT22;28319;48.116;10.818;2022-09-01T19:31:08;18.10;95.20
41985;DHT22;28319;48.116;10.818;2022-09-01T19:36:21;17.90;95.40
41985;DHT22;28319;48.116;10.818;2022-09-01T19:41:30;17.90;95.50
41985;DHT22;28319;48.116;10.818;2022-09-01T19:46:40;17.80;95.40
41985;DHT22;28319;48.116;10.818;2022-09-01T19:51:49;17.70;95.60
41985;DHT22;28319;48.116;10.818;2022-09-01T19:56:58;17.60;95.70
41985;DHT22;28319;48.116;10.818;2022-09-01T20:02:06;17.50;95.50
41985;DHT22;28319;48.116;10.818;2022-09-01T20:07:19;17.40;95.70
41985;DHT22;28319;48.116;10.818;2022-09-01T20:12:32;17.40;95.90
41985;DHT22;28319;48.116;10.818;2022-09-01T20:17:42;17.40;96.00
41985;DHT22;28319;48.116;10.818;2022-09-01T20:22:54;17.40;95.70
41985;DHT22;28319;48.116;10.818;2022-09-01T20:28:03;17.40;95.60
41985;DHT22;28319;48.116;10.818;2022-09-01T20:33:12;17.30;95.70
41985;DHT22;28319;48.116;10.818;2022-09-01T20:38:20;17.10;95.80
41985;DHT22;28319;48.116;10.818;2022-09-01T20:43:45;17.10;96.00
41985;DHT22;28319;48.116;10.818;2022-09-01T20:48:49;16.80;95.70
41985;DHT22;28319;48.116;10.818;2022-09-01T20:54:10;16.70;96.00
41985;DHT22;28319;48.116;10.818;2022-09-01T20:59:21;16.50;96.20
41985;DHT22;28319;48.116;10.818;2022-09-01T21:04:36;16.40;96.50
41985;DHT22;28319;48.116;10.818;2022-09-01T21:09:52;16.30;96.60
41985;DHT22;28319;48.116;10.818;2022-09-01T21:15:06;16.20;96.70
41985;DHT22;28319;48.116;10.818;2022-09-01T21:20:19;16.20;96.80
41985;DHT22;28319;48.116;10.818;2022-09-01T21:25:22;16.00;97.10
41985;DHT22;28319;48.116;10.818;2022-09-01T21:30:29;16.10;97.10
41985;DHT22;28319;48.116;10.818;2022-09-01T21:35:33;15.80;97.30
41985;DHT22;28319;48.116;10.818;2022-09-01T21:40:35;15.90;97.30
41985;DHT22;28319;48.116;10.818;2022-09-01T21:45:40;15.90;97.30
41985;DHT22;28319;48.116;10.818;2022-09-01T21:50:42;15.70;97.70
41985;DHT22;28319;48.116;10.818;2022-09-01T21:55:45;15.80;97.40
41985;DHT22;28319;48.116;10.818;2022-09-01T22:00:48;15.80;97.50
41985;DHT22;28319;48.116;10.818;2022-09-01T22:05:52;15.70;97.60
41985;DHT22;28319;48.116;10.818;2022-09-01T22:10:54;15.50;97.90
41985;DHT22;28319;48.116;10.818;2022-09-01T22:15:58;15.50;98.00
41985;DHT22;28319;48.116;10.818;2022-09-01T22:21:03;15.50;97.90
41985;DHT22;28319;48.116;10.818;2022-09-01T22:26:06;15.50;97.90
41985;DHT22;28319;48.116;10.818;2022-09-01T22:31:13;15.50;97.90
41985;DHT22;28319;48.116;10.818;2022-09-01T22:36:19;15.40;97.90
41985;DHT22;28319;48.116;10.818;2022-09-01T22:41:23;15.30;98.30
41985;DHT22;28319;48.116;10.818;2022-09-01T22:46:28;15.30;98.40
41985;DHT22;28319;48.116;10.818;2022-09-01T22:51:31;15.00;98.90
41985;DHT22;28319;48.116;10.818;2022-09-01T22:56:35;14.90;98.90
41985;DHT22;28319;48.116;10.818;2022-09-01T23:01:41;14.90;99.10
41985;DHT22;28319;48.116;10.818;2022-09-01T23:06:46;15.00;98.90
41985;DHT22;28319;48.116;10.818;2022-09-01T23:11:49;15.00;98.80
41985;DHT22;28319;48.116;10.818;2022-09-01T23:16:52;15.10;98.40
41985;DHT22;28319;48.116;10.818;2022-09-01T23:21:54;15.10;98.50
41985;DHT22;28319;48.116;10.818;2022-09-01T23:26:57;15.10;98.50
41985;DHT22;28319;48.116;10.818;2022-09-01T23:32:00;15.10;98.50
41985;DHT22;28319;48.116;10.818;2022-09-01T23:37:03;15.00;98.70
41985;DHT22;28319;48.116;10.818;2022-09-01T23:42:05;14.90;98.80
41985;DHT22;28319;48.116;10.818;2022-09-01T23:47:08;14.80;98.70
41985;DHT22;28319;48.116;10.818;2022-09-01T23:52:11;14.90;98.90
41985;DHT22;28319;48.116;10.818;2022-09-01T23:57:13;14.90;98.50
